Airport details for: LKVO (Czech Republic)

Metar

LKVO 241100Z VRB04KT 9000 BKN028 10/03 Q1028

General details

ICAO: LKVO
IATA: VOD
Name (city): Vodochody
Major:
Country: Czech Republic
vACC: Czech vACC
Description:

Web: http://www.vacc-cz.org/airports/others#lkvo

Scenery links:
FS9 scenery: Download
FSX/P3D scenery:
XP scenery:
Elevation: 919 ft.
Transition altitude: 5000 ft.
MSA: 8200 ft.
Latitude: 50.216667
Longitude: 14.395556
LKVO Charts
LKVO Notams
LKVO Online stations

Runways

Number Course Length Elevation Lat Lon ILS ILS freq ILS FAC GP
10 102° 8202ft / 2500 m 880ft 50.219564 14.378614 - - 3.0°
11 102° 5906ft / 1800 m 894ft 50.216667 14.395556 - - 3.0°
28 282° 8202ft / 2500 m 915ft 50.213794 14.41247 110.75 282° 3.0°
29 282° 5906ft / 1800 m 915ft 50.216667 14.395556 - - 3.0°